sensor_id;sensor_type;location;lat;lon;timestamp;P1;durP1;ratioP1;P2;durP2;ratioP2
17488;SDS011;8861;52.644;4.734;2023-04-15T00:00:08;10.63;;;6.30;;
17488;SDS011;8861;52.644;4.734;2023-04-15T00:02:36;10.10;;;6.87;;
17488;SDS011;8861;52.644;4.734;2023-04-15T00:05:03;8.37;;;6.63;;
17488;SDS011;8861;52.644;4.734;2023-04-15T00:07:31;10.67;;;6.37;;
17488;SDS011;8861;52.644;4.734;2023-04-15T00:09:59;10.83;;;6.80;;
17488;SDS011;8861;52.644;4.734;2023-04-15T00:12:26;8.07;;;6.00;;
17488;SDS011;8861;52.644;4.734;2023-04-15T00:14:53;7.70;;;5.90;;
17488;SDS011;8861;52.644;4.734;2023-04-15T00:17:21;8.17;;;5.97;;
17488;SDS011;8861;52.644;4.734;2023-04-15T00:19:48;8.73;;;6.10;;
17488;SDS011;8861;52.644;4.734;2023-04-15T00:22:15;9.23;;;6.03;;
17488;SDS011;8861;52.644;4.734;2023-04-15T00:24:42;9.30;;;6.10;;
17488;SDS011;8861;52.644;4.734;2023-04-15T00:27:10;10.50;;;6.47;;
17488;SDS011;8861;52.644;4.734;2023-04-15T00:29:37;10.53;;;6.23;;
17488;SDS011;8861;52.644;4.734;2023-04-15T00:32:04;8.63;;;6.10;;
17488;SDS011;8861;52.644;4.734;2023-04-15T00:34:32;8.73;;;6.17;;
17488;SDS011;8861;52.644;4.734;2023-04-15T00:36:58;9.17;;;5.43;;
17488;SDS011;8861;52.644;4.734;2023-04-15T00:39:25;10.47;;;6.27;;
17488;SDS011;8861;52.644;4.734;2023-04-15T00:41:53;8.57;;;5.73;;
17488;SDS011;8861;52.644;4.734;2023-04-15T00:44:22;10.07;;;5.93;;
17488;SDS011;8861;52.644;4.734;2023-04-15T00:46:50;10.00;;;6.40;;
17488;SDS011;8861;52.644;4.734;2023-04-15T00:49:17;8.63;;;6.10;;
17488;SDS011;8861;52.644;4.734;2023-04-15T00:51:44;9.97;;;6.17;;
17488;SDS011;8861;52.644;4.734;2023-04-15T00:54:11;10.33;;;6.77;;
17488;SDS011;8861;52.644;4.734;2023-04-15T00:56:38;8.27;;;6.40;;
17488;SDS011;8861;52.644;4.734;2023-04-15T00:59:06;8.03;;;6.57;;
17488;SDS011;8861;52.644;4.734;2023-04-15T01:01:35;9.30;;;6.80;;
17488;SDS011;8861;52.644;4.734;2023-04-15T01:04:02;8.30;;;5.90;;
17488;SDS011;8861;52.644;4.734;2023-04-15T01:06:30;9.33;;;5.90;;
17488;SDS011;8861;52.644;4.734;2023-04-15T01:08:57;8.43;;;6.10;;
17488;SDS011;8861;52.644;4.734;2023-04-15T01:11:25;9.43;;;6.33;;
17488;SDS011;8861;52.644;4.734;2023-04-15T01:13:53;8.13;;;5.63;;
17488;SDS011;8861;52.644;4.734;2023-04-15T01:16:21;8.80;;;6.40;;
17488;SDS011;8861;52.644;4.734;2023-04-15T01:18:49;8.67;;;6.23;;
17488;SDS011;8861;52.644;4.734;2023-04-15T01:21:16;9.43;;;6.20;;
17488;SDS011;8861;52.644;4.734;2023-04-15T01:23:44;7.70;;;6.00;;
17488;SDS011;8861;52.644;4.734;2023-04-15T01:26:14;8.90;;;6.57;;
17488;SDS011;8861;52.644;4.734;2023-04-15T01:28:41;8.97;;;6.73;;
17488;SDS011;8861;52.644;4.734;2023-04-15T01:31:09;9.00;;;6.00;;
17488;SDS011;8861;52.644;4.734;2023-04-15T01:33:38;9.70;;;6.27;;
17488;SDS011;8861;52.644;4.734;2023-04-15T01:36:06;8.83;;;6.80;;
17488;SDS011;8861;52.644;4.734;2023-04-15T01:38:35;10.27;;;6.63;;
17488;SDS011;8861;52.644;4.734;2023-04-15T01:41:02;9.40;;;6.60;;
17488;SDS011;8861;52.644;4.734;2023-04-15T01:43:33;10.00;;;6.47;;
17488;SDS011;8861;52.644;4.734;2023-04-15T01:46:00;10.63;;;6.90;;
17488;SDS011;8861;52.644;4.734;2023-04-15T01:48:27;10.00;;;6.80;;
17488;SDS011;8861;52.644;4.734;2023-04-15T01:50:54;16.07;;;6.87;;
17488;SDS011;8861;52.644;4.734;2023-04-15T01:53:22;9.23;;;6.10;;
17488;SDS011;8861;52.644;4.734;2023-04-15T01:55:49;8.83;;;6.40;;
17488;SDS011;8861;52.644;4.734;2023-04-15T01:58:17;8.23;;;6.17;;
17488;SDS011;8861;52.644;4.734;2023-04-15T02:00:46;7.70;;;5.50;;
17488;SDS011;8861;52.644;4.734;2023-04-15T02:03:13;8.93;;;6.10;;
17488;SDS011;8861;52.644;4.734;2023-04-15T02:05:39;9.70;;;6.57;;
17488;SDS011;8861;52.644;4.734;2023-04-15T02:08:06;8.77;;;6.00;;
17488;SDS011;8861;52.644;4.734;2023-04-15T02:10:34;10.47;;;6.33;;
17488;SDS011;8861;52.644;4.734;2023-04-15T02:13:01;8.60;;;6.10;;
17488;SDS011;8861;52.644;4.734;2023-04-15T02:15:28;9.83;;;6.83;;
17488;SDS011;8861;52.644;4.734;2023-04-15T02:17:57;8.93;;;6.97;;
17488;SDS011;8861;52.644;4.734;2023-04-15T02:20:24;10.03;;;6.50;;
17488;SDS011;8861;52.644;4.734;2023-04-15T02:22:51;9.87;;;6.37;;
17488;SDS011;8861;52.644;4.734;2023-04-15T02:25:18;8.70;;;6.60;;
17488;SDS011;8861;52.644;4.734;2023-04-15T02:27:45;9.67;;;6.03;;
17488;SDS011;8861;52.644;4.734;2023-04-15T02:30:12;9.57;;;7.07;;
17488;SDS011;8861;52.644;4.734;2023-04-15T02:32:40;10.77;;;7.27;;
17488;SDS011;8861;52.644;4.734;2023-04-15T02:35:10;10.27;;;7.40;;
17488;SDS011;8861;52.644;4.734;2023-04-15T02:37:37;11.53;;;7.27;;
17488;SDS011;8861;52.644;4.734;2023-04-15T02:40:07;10.43;;;7.13;;
17488;SDS011;8861;52.644;4.734;2023-04-15T02:42:36;10.77;;;7.50;;
17488;SDS011;8861;52.644;4.734;2023-04-15T02:45:04;11.50;;;8.00;;
17488;SDS011;8861;52.644;4.734;2023-04-15T02:47:32;12.63;;;7.23;;
17488;SDS011;8861;52.644;4.734;2023-04-15T02:50:00;12.27;;;8.63;;
17488;SDS011;8861;52.644;4.734;2023-04-15T02:52:29;12.53;;;8.30;;
17488;SDS011;8861;52.644;4.734;2023-04-15T02:54:56;13.23;;;8.93;;
17488;SDS011;8861;52.644;4.734;2023-04-15T02:57:25;13.07;;;8.53;;
17488;SDS011;8861;52.644;4.734;2023-04-15T02:59:52;12.40;;;7.90;;
17488;SDS011;8861;52.644;4.734;2023-04-15T03:02:19;14.37;;;8.53;;
17488;SDS011;8861;52.644;4.734;2023-04-15T03:04:46;11.67;;;7.40;;
17488;SDS011;8861;52.644;4.734;2023-04-15T03:07:13;15.13;;;8.77;;
17488;SDS011;8861;52.644;4.734;2023-04-15T03:09:42;14.10;;;9.10;;
17488;SDS011;8861;52.644;4.734;2023-04-15T03:12:09;13.07;;;8.40;;
17488;SDS011;8861;52.644;4.734;2023-04-15T03:14:36;13.00;;;8.20;;
17488;SDS011;8861;52.644;4.734;2023-04-15T03:17:03;11.97;;;8.47;;
17488;SDS011;8861;52.644;4.734;2023-04-15T03:19:30;12.33;;;7.93;;
17488;SDS011;8861;52.644;4.734;2023-04-15T03:21:57;10.20;;;7.30;;
17488;SDS011;8861;52.644;4.734;2023-04-15T03:24:23;14.20;;;8.20;;
17488;SDS011;8861;52.644;4.734;2023-04-15T03:26:52;10.00;;;7.47;;
17488;SDS011;8861;52.644;4.734;2023-04-15T03:29:20;12.67;;;7.77;;
17488;SDS011;8861;52.644;4.734;2023-04-15T03:31:47;10.37;;;7.67;;
17488;SDS011;8861;52.644;4.734;2023-04-15T03:34:14;11.87;;;8.40;;
17488;SDS011;8861;52.644;4.734;2023-04-15T03:36:41;12.80;;;8.30;;
17488;SDS011;8861;52.644;4.734;2023-04-15T03:39:07;12.37;;;7.93;;
17488;SDS011;8861;52.644;4.734;2023-04-15T03:41:34;11.93;;;8.27;;
17488;SDS011;8861;52.644;4.734;2023-04-15T03:44:03;13.40;;;9.07;;
17488;SDS011;8861;52.644;4.734;2023-04-15T03:46:30;14.53;;;9.77;;
17488;SDS011;8861;52.644;4.734;2023-04-15T03:48:57;13.23;;;8.93;;
17488;SDS011;8861;52.644;4.734;2023-04-15T03:51:24;14.73;;;8.90;;
17488;SDS011;8861;52.644;4.734;2023-04-15T03:53:51;13.27;;;9.10;;
17488;SDS011;8861;52.644;4.734;2023-04-15T03:56:18;12.70;;;9.07;;
17488;SDS011;8861;52.644;4.734;2023-04-15T03:58:45;14.27;;;9.00;;
17488;SDS011;8861;52.644;4.734;2023-04-15T04:01:13;12.27;;;8.60;;
17488;SDS011;8861;52.644;4.734;2023-04-15T04:03:40;14.77;;;9.60;;
17488;SDS011;8861;52.644;4.734;2023-04-15T04:06:07;12.77;;;8.57;;
17488;SDS011;8861;52.644;4.734;2023-04-15T04:08:34;12.57;;;8.80;;
17488;SDS011;8861;52.644;4.734;2023-04-15T04:11:01;12.53;;;8.90;;
17488;SDS011;8861;52.644;4.734;2023-04-15T04:13:28;14.47;;;9.40;;
17488;SDS011;8861;52.644;4.734;2023-04-15T04:15:55;14.70;;;9.17;;
17488;SDS011;8861;52.644;4.734;2023-04-15T04:18:24;12.77;;;9.00;;
17488;SDS011;8861;52.644;4.734;2023-04-15T04:20:50;13.37;;;9.13;;
17488;SDS011;8861;52.644;4.734;2023-04-15T04:23:17;13.53;;;9.23;;
17488;SDS011;8861;52.644;4.734;2023-04-15T04:25:44;12.77;;;8.70;;
17488;SDS011;8861;52.644;4.734;2023-04-15T04:28:11;13.07;;;9.50;;
17488;SDS011;8861;52.644;4.734;2023-04-15T04:30:38;14.63;;;9.87;;
17488;SDS011;8861;52.644;4.734;2023-04-15T04:33:05;14.33;;;9.60;;
17488;SDS011;8861;52.644;4.734;2023-04-15T04:35:34;16.40;;;10.10;;
17488;SDS011;8861;52.644;4.734;2023-04-15T04:38:01;15.30;;;9.83;;
17488;SDS011;8861;52.644;4.734;2023-04-15T04:40:29;15.20;;;10.47;;
17488;SDS011;8861;52.644;4.734;2023-04-15T04:42:56;16.30;;;10.07;;
17488;SDS011;8861;52.644;4.734;2023-04-15T04:45:23;14.90;;;10.67;;
17488;SDS011;8861;52.644;4.734;2023-04-15T04:47:49;18.20;;;10.90;;
17488;SDS011;8861;52.644;4.734;2023-04-15T04:50:16;17.23;;;11.23;;
17488;SDS011;8861;52.644;4.734;2023-04-15T04:52:45;18.93;;;11.50;;
17488;SDS011;8861;52.644;4.734;2023-04-15T04:55:12;17.37;;;11.10;;
17488;SDS011;8861;52.644;4.734;2023-04-15T04:57:38;16.53;;;11.53;;
17488;SDS011;8861;52.644;4.734;2023-04-15T05:00:06;18.53;;;11.47;;
17488;SDS011;8861;52.644;4.734;2023-04-15T05:02:33;17.27;;;11.20;;
17488;SDS011;8861;52.644;4.734;2023-04-15T05:05:01;19.50;;;12.63;;
17488;SDS011;8861;52.644;4.734;2023-04-15T05:07:28;20.43;;;12.97;;
17488;SDS011;8861;52.644;4.734;2023-04-15T05:09:56;18.03;;;12.20;;
17488;SDS011;8861;52.644;4.734;2023-04-15T05:12:23;18.23;;;11.67;;
17488;SDS011;8861;52.644;4.734;2023-04-15T05:14:50;18.20;;;11.80;;
17488;SDS011;8861;52.644;4.734;2023-04-15T05:17:17;16.97;;;11.37;;
17488;SDS011;8861;52.644;4.734;2023-04-15T05:19:44;17.37;;;11.90;;
17488;SDS011;8861;52.644;4.734;2023-04-15T05:22:11;17.63;;;12.27;;
17488;SDS011;8861;52.644;4.734;2023-04-15T05:24:38;18.87;;;12.20;;
17488;SDS011;8861;52.644;4.734;2023-04-15T05:27:07;18.67;;;12.40;;
17488;SDS011;8861;52.644;4.734;2023-04-15T05:29:35;22.73;;;12.97;;
17488;SDS011;8861;52.644;4.734;2023-04-15T05:32:02;19.97;;;13.07;;
17488;SDS011;8861;52.644;4.734;2023-04-15T05:34:29;19.63;;;12.43;;
17488;SDS011;8861;52.644;4.734;2023-04-15T05:36:56;18.53;;;12.77;;
17488;SDS011;8861;52.644;4.734;2023-04-15T05:39:23;17.67;;;12.03;;
17488;SDS011;8861;52.644;4.734;2023-04-15T05:41:50;16.47;;;11.53;;
17488;SDS011;8861;52.644;4.734;2023-04-15T05:44:19;17.77;;;11.63;;
17488;SDS011;8861;52.644;4.734;2023-04-15T05:46:48;19.00;;;12.03;;
17488;SDS011;8861;52.644;4.734;2023-04-15T05:49:16;17.77;;;11.43;;
17488;SDS011;8861;52.644;4.734;2023-04-15T05:51:43;21.77;;;12.33;;
17488;SDS011;8861;52.644;4.734;2023-04-15T05:54:12;20.57;;;12.87;;
17488;SDS011;8861;52.644;4.734;2023-04-15T05:56:39;17.97;;;13.23;;
17488;SDS011;8861;52.644;4.734;2023-04-15T05:59:06;20.03;;;13.43;;
17488;SDS011;8861;52.644;4.734;2023-04-15T06:01:34;22.13;;;13.87;;
17488;SDS011;8861;52.644;4.734;2023-04-15T06:04:01;20.97;;;12.90;;
17488;SDS011;8861;52.644;4.734;2023-04-15T06:06:28;22.40;;;13.53;;
17488;SDS011;8861;52.644;4.734;2023-04-15T06:08:56;20.60;;;13.53;;
17488;SDS011;8861;52.644;4.734;2023-04-15T06:11:23;21.57;;;14.33;;
17488;SDS011;8861;52.644;4.734;2023-04-15T06:13:51;19.10;;;12.10;;
17488;SDS011;8861;52.644;4.734;2023-04-15T06:16:18;18.83;;;12.37;;
17488;SDS011;8861;52.644;4.734;2023-04-15T06:18:46;18.73;;;12.47;;
17488;SDS011;8861;52.644;4.734;2023-04-15T06:21:13;19.53;;;12.53;;
17488;SDS011;8861;52.644;4.734;2023-04-15T06:23:40;20.50;;;13.37;;
17488;SDS011;8861;52.644;4.734;2023-04-15T06:26:07;20.83;;;14.33;;
17488;SDS011;8861;52.644;4.734;2023-04-15T06:28:34;23.73;;;13.90;;
17488;SDS011;8861;52.644;4.734;2023-04-15T06:31:01;19.40;;;12.87;;
17488;SDS011;8861;52.644;4.734;2023-04-15T06:33:28;20.53;;;13.30;;
17488;SDS011;8861;52.644;4.734;2023-04-15T06:35:57;19.43;;;12.73;;
17488;SDS011;8861;52.644;4.734;2023-04-15T06:38:24;18.40;;;13.13;;
17488;SDS011;8861;52.644;4.734;2023-04-15T06:40:51;20.40;;;13.33;;
17488;SDS011;8861;52.644;4.734;2023-04-15T06:43:18;21.10;;;12.93;;
17488;SDS011;8861;52.644;4.734;2023-04-15T06:45:45;22.33;;;14.40;;
17488;SDS011;8861;52.644;4.734;2023-04-15T06:48:12;22.87;;;14.43;;
17488;SDS011;8861;52.644;4.734;2023-04-15T06:50:39;19.67;;;12.90;;
17488;SDS011;8861;52.644;4.734;2023-04-15T06:53:07;18.60;;;12.60;;
17488;SDS011;8861;52.644;4.734;2023-04-15T06:55:34;19.50;;;13.33;;
17488;SDS011;8861;52.644;4.734;2023-04-15T06:58:01;20.60;;;12.83;;
17488;SDS011;8861;52.644;4.734;2023-04-15T07:00:28;19.77;;;13.73;;
17488;SDS011;8861;52.644;4.734;2023-04-15T07:02:57;22.93;;;14.07;;
17488;SDS011;8861;52.644;4.734;2023-04-15T07:05:27;19.90;;;12.80;;
17488;SDS011;8861;52.644;4.734;2023-04-15T07:07:54;20.23;;;13.00;;
17488;SDS011;8861;52.644;4.734;2023-04-15T07:10:22;17.30;;;11.77;;
17488;SDS011;8861;52.644;4.734;2023-04-15T07:12:49;16.87;;;11.10;;
17488;SDS011;8861;52.644;4.734;2023-04-15T07:15:16;15.57;;;10.93;;
17488;SDS011;8861;52.644;4.734;2023-04-15T07:17:43;13.37;;;9.80;;
17488;SDS011;8861;52.644;4.734;2023-04-15T07:20:11;13.00;;;9.20;;
17488;SDS011;8861;52.644;4.734;2023-04-15T07:22:38;14.30;;;9.80;;
17488;SDS011;8861;52.644;4.734;2023-04-15T07:25:06;14.50;;;9.73;;
17488;SDS011;8861;52.644;4.734;2023-04-15T07:27:35;14.20;;;9.33;;
17488;SDS011;8861;52.644;4.734;2023-04-15T07:30:02;12.50;;;8.83;;
17488;SDS011;8861;52.644;4.734;2023-04-15T07:32:30;12.30;;;8.40;;
17488;SDS011;8861;52.644;4.734;2023-04-15T07:34:56;11.33;;;8.23;;
17488;SDS011;8861;52.644;4.734;2023-04-15T07:37:23;10.30;;;7.57;;
17488;SDS011;8861;52.644;4.734;2023-04-15T07:39:52;10.93;;;7.70;;
17488;SDS011;8861;52.644;4.734;2023-04-15T07:42:19;10.73;;;7.60;;
17488;SDS011;8861;52.644;4.734;2023-04-15T07:44:47;10.70;;;7.33;;
17488;SDS011;8861;52.644;4.734;2023-04-15T07:47:14;10.57;;;6.67;;
17488;SDS011;8861;52.644;4.734;2023-04-15T07:49:41;9.43;;;6.83;;
17488;SDS011;8861;52.644;4.734;2023-04-15T07:52:09;11.87;;;7.30;;
17488;SDS011;8861;52.644;4.734;2023-04-15T07:54:36;10.57;;;6.73;;
17488;SDS011;8861;52.644;4.734;2023-04-15T07:57:03;11.13;;;7.10;;
17488;SDS011;8861;52.644;4.734;2023-04-15T07:59:30;9.63;;;6.83;;
17488;SDS011;8861;52.644;4.734;2023-04-15T08:01:59;10.23;;;7.10;;
17488;SDS011;8861;52.644;4.734;2023-04-15T08:04:26;11.20;;;6.97;;
17488;SDS011;8861;52.644;4.734;2023-04-15T08:06:53;11.03;;;6.70;;
17488;SDS011;8861;52.644;4.734;2023-04-15T08:09:19;10.33;;;7.20;;
17488;SDS011;8861;52.644;4.734;2023-04-15T08:11:47;10.57;;;7.30;;
17488;SDS011;8861;52.644;4.734;2023-04-15T08:14:14;9.87;;;6.73;;
17488;SDS011;8861;52.644;4.734;2023-04-15T08:16:42;9.93;;;7.13;;
17488;SDS011;8861;52.644;4.734;2023-04-15T08:19:11;8.57;;;6.60;;
17488;SDS011;8861;52.644;4.734;2023-04-15T08:21:38;11.33;;;7.13;;
17488;SDS011;8861;52.644;4.734;2023-04-15T08:24:06;10.90;;;7.33;;
17488;SDS011;8861;52.644;4.734;2023-04-15T08:26:33;8.93;;;6.77;;
17488;SDS011;8861;52.644;4.734;2023-04-15T08:28:59;9.30;;;6.70;;
17488;SDS011;8861;52.644;4.734;2023-04-15T08:31:27;11.07;;;7.10;;
17488;SDS011;8861;52.644;4.734;2023-04-15T08:33:55;10.87;;;7.30;;
17488;SDS011;8861;52.644;4.734;2023-04-15T08:36:24;10.63;;;7.87;;
17488;SDS011;8861;52.644;4.734;2023-04-15T08:38:52;8.87;;;7.00;;
17488;SDS011;8861;52.644;4.734;2023-04-15T08:41:20;10.43;;;6.80;;
17488;SDS011;8861;52.644;4.734;2023-04-15T08:43:51;9.73;;;6.97;;
17488;SDS011;8861;52.644;4.734;2023-04-15T08:46:19;9.20;;;6.67;;
17488;SDS011;8861;52.644;4.734;2023-04-15T08:48:47;8.60;;;6.20;;
17488;SDS011;8861;52.644;4.734;2023-04-15T08:51:15;8.57;;;5.87;;
17488;SDS011;8861;52.644;4.734;2023-04-15T08:53:44;7.67;;;5.33;;
17488;SDS011;8861;52.644;4.734;2023-04-15T08:56:12;9.60;;;5.37;;
17488;SDS011;8861;52.644;4.734;2023-04-15T08:58:40;9.77;;;5.23;;
17488;SDS011;8861;52.644;4.734;2023-04-15T09:01:09;7.83;;;4.90;;
17488;SDS011;8861;52.644;4.734;2023-04-15T09:03:37;7.57;;;5.03;;
17488;SDS011;8861;52.644;4.734;2023-04-15T09:06:04;7.20;;;5.00;;
17488;SDS011;8861;52.644;4.734;2023-04-15T09:08:31;7.97;;;5.30;;
17488;SDS011;8861;52.644;4.734;2023-04-15T09:11:01;8.47;;;5.33;;
17488;SDS011;8861;52.644;4.734;2023-04-15T09:13:28;8.13;;;4.93;;
17488;SDS011;8861;52.644;4.734;2023-04-15T09:15:56;7.40;;;5.20;;
17488;SDS011;8861;52.644;4.734;2023-04-15T09:18:26;7.97;;;4.77;;
17488;SDS011;8861;52.644;4.734;2023-04-15T09:21:05;7.23;;;4.93;;
17488;SDS011;8861;52.644;4.734;2023-04-15T09:23:33;9.17;;;5.83;;
17488;SDS011;8861;52.644;4.734;2023-04-15T09:26:02;9.63;;;5.63;;
17488;SDS011;8861;52.644;4.734;2023-04-15T09:28:30;8.57;;;5.20;;
17488;SDS011;8861;52.644;4.734;2023-04-15T09:30:58;7.73;;;4.97;;
17488;SDS011;8861;52.644;4.734;2023-04-15T09:33:26;7.40;;;5.63;;
17488;SDS011;8861;52.644;4.734;2023-04-15T09:35:57;7.60;;;5.50;;
17488;SDS011;8861;52.644;4.734;2023-04-15T09:38:25;9.50;;;6.03;;
17488;SDS011;8861;52.644;4.734;2023-04-15T09:40:53;9.53;;;5.87;;
17488;SDS011;8861;52.644;4.734;2023-04-15T09:43:21;7.97;;;6.20;;
17488;SDS011;8861;52.644;4.734;2023-04-15T09:45:50;9.47;;;5.50;;
17488;SDS011;8861;52.644;4.734;2023-04-15T09:48:19;7.80;;;5.50;;
17488;SDS011;8861;52.644;4.734;2023-04-15T09:50:48;7.87;;;5.90;;
17488;SDS011;8861;52.644;4.734;2023-04-15T09:53:18;10.20;;;7.50;;
17488;SDS011;8861;52.644;4.734;2023-04-15T09:55:48;11.10;;;6.50;;
17488;SDS011;8861;52.644;4.734;2023-04-15T09:58:16;7.93;;;5.93;;
17488;SDS011;8861;52.644;4.734;2023-04-15T10:00:46;10.83;;;6.00;;
17488;SDS011;8861;52.644;4.734;2023-04-15T10:03:15;8.43;;;5.30;;
17488;SDS011;8861;52.644;4.734;2023-04-15T10:05:46;8.67;;;5.40;;
17488;SDS011;8861;52.644;4.734;2023-04-15T10:08:16;8.93;;;6.10;;
17488;SDS011;8861;52.644;4.734;2023-04-15T10:10:45;9.43;;;5.50;;
17488;SDS011;8861;52.644;4.734;2023-04-15T10:13:13;8.97;;;5.60;;
17488;SDS011;8861;52.644;4.734;2023-04-15T10:15:43;10.17;;;7.20;;
17488;SDS011;8861;52.644;4.734;2023-04-15T10:18:16;13.43;;;7.93;;
17488;SDS011;8861;52.644;4.734;2023-04-15T10:20:46;12.03;;;6.70;;
17488;SDS011;8861;52.644;4.734;2023-04-15T10:23:14;11.87;;;7.07;;
17488;SDS011;8861;52.644;4.734;2023-04-15T10:25:41;9.50;;;5.37;;
17488;SDS011;8861;52.644;4.734;2023-04-15T10:28:08;8.47;;;5.10;;
17488;SDS011;8861;52.644;4.734;2023-04-15T10:30:36;7.40;;;4.73;;
17488;SDS011;8861;52.644;4.734;2023-04-15T10:33:03;8.53;;;5.33;;
17488;SDS011;8861;52.644;4.734;2023-04-15T10:35:33;8.93;;;6.03;;
17488;SDS011;8861;52.644;4.734;2023-04-15T10:38:00;8.77;;;5.83;;
17488;SDS011;8861;52.644;4.734;2023-04-15T10:40:27;8.00;;;5.60;;
17488;SDS011;8861;52.644;4.734;2023-04-15T10:42:57;7.00;;;4.93;;
17488;SDS011;8861;52.644;4.734;2023-04-15T10:45:25;6.10;;;4.47;;
17488;SDS011;8861;52.644;4.734;2023-04-15T10:47:55;5.43;;;3.90;;
17488;SDS011;8861;52.644;4.734;2023-04-15T10:50:24;5.93;;;3.80;;
17488;SDS011;8861;52.644;4.734;2023-04-15T10:52:54;5.40;;;3.77;;
17488;SDS011;8861;52.644;4.734;2023-04-15T10:55:22;4.20;;;2.97;;
17488;SDS011;8861;52.644;4.734;2023-04-15T10:57:50;4.43;;;3.37;;
17488;SDS011;8861;52.644;4.734;2023-04-15T11:00:19;4.83;;;3.27;;
17488;SDS011;8861;52.644;4.734;2023-04-15T11:02:51;3.43;;;2.90;;
17488;SDS011;8861;52.644;4.734;2023-04-15T11:05:20;4.13;;;3.20;;
17488;SDS011;8861;52.644;4.734;2023-04-15T11:07:49;4.40;;;3.30;;
17488;SDS011;8861;52.644;4.734;2023-04-15T11:13:20;5.50;;;3.30;;
17488;SDS011;8861;52.644;4.734;2023-04-15T11:15:49;5.57;;;3.67;;
17488;SDS011;8861;52.644;4.734;2023-04-15T11:18:16;4.80;;;3.27;;
17488;SDS011;8861;52.644;4.734;2023-04-15T11:20:45;5.80;;;3.47;;
17488;SDS011;8861;52.644;4.734;2023-04-15T11:23:14;6.13;;;3.97;;
17488;SDS011;8861;52.644;4.734;2023-04-15T11:25:42;6.30;;;4.37;;
17488;SDS011;8861;52.644;4.734;2023-04-15T11:28:11;8.27;;;4.77;;
17488;SDS011;8861;52.644;4.734;2023-04-15T11:30:38;6.43;;;4.10;;
17488;SDS011;8861;52.644;4.734;2023-04-15T11:33:07;5.27;;;4.00;;
17488;SDS011;8861;52.644;4.734;2023-04-15T11:35:36;6.50;;;4.20;;
17488;SDS011;8861;52.644;4.734;2023-04-15T11:38:07;7.33;;;3.97;;
17488;SDS011;8861;52.644;4.734;2023-04-15T11:40:35;4.43;;;3.40;;
17488;SDS011;8861;52.644;4.734;2023-04-15T11:43:04;4.20;;;3.23;;
17488;SDS011;8861;52.644;4.734;2023-04-15T11:45:33;5.30;;;3.50;;
17488;SDS011;8861;52.644;4.734;2023-04-15T11:48:07;5.67;;;3.83;;
17488;SDS011;8861;52.644;4.734;2023-04-15T11:50:35;5.30;;;3.77;;
17488;SDS011;8861;52.644;4.734;2023-04-15T11:53:05;5.47;;;3.73;;
17488;SDS011;8861;52.644;4.734;2023-04-15T11:55:40;8.87;;;4.93;;
17488;SDS011;8861;52.644;4.734;2023-04-15T11:58:09;7.00;;;4.10;;
17488;SDS011;8861;52.644;4.734;2023-04-15T12:00:39;4.93;;;3.83;;
17488;SDS011;8861;52.644;4.734;2023-04-15T12:03:20;6.47;;;3.67;;
17488;SDS011;8861;52.644;4.734;2023-04-15T12:06:08;4.70;;;3.60;;
17488;SDS011;8861;52.644;4.734;2023-04-15T12:08:50;6.17;;;3.30;;
17488;SDS011;8861;52.644;4.734;2023-04-15T12:11:18;4.23;;;2.60;;
17488;SDS011;8861;52.644;4.734;2023-04-15T12:13:46;3.13;;;2.10;;
17488;SDS011;8861;52.644;4.734;2023-04-15T12:16:16;6.03;;;3.00;;
17488;SDS011;8861;52.644;4.734;2023-04-15T12:18:44;3.93;;;2.40;;
17488;SDS011;8861;52.644;4.734;2023-04-15T12:21:12;5.73;;;2.77;;
17488;SDS011;8861;52.644;4.734;2023-04-15T12:23:46;5.07;;;3.47;;
17488;SDS011;8861;52.644;4.734;2023-04-15T12:26:14;5.13;;;3.37;;
17488;SDS011;8861;52.644;4.734;2023-04-15T12:28:42;6.47;;;3.00;;
17488;SDS011;8861;52.644;4.734;2023-04-15T12:31:09;4.53;;;2.97;;
17488;SDS011;8861;52.644;4.734;2023-04-15T12:33:39;4.00;;;2.63;;
17488;SDS011;8861;52.644;4.734;2023-04-15T12:36:05;5.10;;;3.00;;
17488;SDS011;8861;52.644;4.734;2023-04-15T12:38:33;5.20;;;2.50;;
17488;SDS011;8861;52.644;4.734;2023-04-15T12:41:00;7.10;;;3.07;;
17488;SDS011;8861;52.644;4.734;2023-04-15T12:43:27;3.87;;;2.50;;
17488;SDS011;8861;52.644;4.734;2023-04-15T12:45:54;5.20;;;2.37;;
17488;SDS011;8861;52.644;4.734;2023-04-15T12:48:21;3.20;;;2.03;;
17488;SDS011;8861;52.644;4.734;2023-04-15T12:50:49;4.77;;;2.90;;
17488;SDS011;8861;52.644;4.734;2023-04-15T12:53:16;6.17;;;3.00;;
17488;SDS011;8861;52.644;4.734;2023-04-15T12:55:43;5.27;;;3.00;;
17488;SDS011;8861;52.644;4.734;2023-04-15T12:58:10;4.90;;;2.93;;
17488;SDS011;8861;52.644;4.734;2023-04-15T13:00:37;5.40;;;3.03;;
17488;SDS011;8861;52.644;4.734;2023-04-15T13:03:04;6.77;;;2.97;;
17488;SDS011;8861;52.644;4.734;2023-04-15T13:05:31;5.73;;;2.83;;
17488;SDS011;8861;52.644;4.734;2023-04-15T13:07:59;4.33;;;2.80;;
17488;SDS011;8861;52.644;4.734;2023-04-15T13:10:26;7.10;;;3.43;;
17488;SDS011;8861;52.644;4.734;2023-04-15T13:12:54;3.90;;;2.90;;
17488;SDS011;8861;52.644;4.734;2023-04-15T13:15:21;4.60;;;2.80;;
17488;SDS011;8861;52.644;4.734;2023-04-15T13:17:50;4.77;;;2.70;;
17488;SDS011;8861;52.644;4.734;2023-04-15T13:20:17;3.47;;;2.43;;
17488;SDS011;8861;52.644;4.734;2023-04-15T13:22:44;3.57;;;2.63;;
17488;SDS011;8861;52.644;4.734;2023-04-15T13:25:12;5.70;;;2.40;;
17488;SDS011;8861;52.644;4.734;2023-04-15T13:27:39;4.83;;;2.43;;
17488;SDS011;8861;52.644;4.734;2023-04-15T13:30:07;4.67;;;2.20;;
17488;SDS011;8861;52.644;4.734;2023-04-15T13:32:34;6.07;;;2.37;;
17488;SDS011;8861;52.644;4.734;2023-04-15T13:35:01;4.07;;;2.40;;
17488;SDS011;8861;52.644;4.734;2023-04-15T13:37:29;6.77;;;2.97;;
17488;SDS011;8861;52.644;4.734;2023-04-15T13:39:56;4.23;;;2.50;;
17488;SDS011;8861;52.644;4.734;2023-04-15T13:42:24;4.00;;;2.60;;
17488;SDS011;8861;52.644;4.734;2023-04-15T13:44:51;8.30;;;3.00;;
17488;SDS011;8861;52.644;4.734;2023-04-15T13:47:18;4.07;;;2.83;;
17488;SDS011;8861;52.644;4.734;2023-04-15T13:49:46;9.13;;;2.63;;
17488;SDS011;8861;52.644;4.734;2023-04-15T13:52:13;7.37;;;2.80;;
17488;SDS011;8861;52.644;4.734;2023-04-15T13:54:40;5.27;;;2.77;;
17488;SDS011;8861;52.644;4.734;2023-04-15T13:57:07;5.73;;;2.73;;
17488;SDS011;8861;52.644;4.734;2023-04-15T13:59:35;8.37;;;3.10;;
17488;SDS011;8861;52.644;4.734;2023-04-15T14:02:02;6.00;;;3.13;;
17488;SDS011;8861;52.644;4.734;2023-04-15T14:04:30;5.93;;;3.10;;
17488;SDS011;8861;52.644;4.734;2023-04-15T14:06:57;8.57;;;3.80;;
17488;SDS011;8861;52.644;4.734;2023-04-15T14:09:24;7.27;;;3.33;;
17488;SDS011;8861;52.644;4.734;2023-04-15T14:11:52;7.97;;;4.00;;
17488;SDS011;8861;52.644;4.734;2023-04-15T14:14:18;8.93;;;3.43;;
17488;SDS011;8861;52.644;4.734;2023-04-15T14:16:47;4.97;;;2.90;;
17488;SDS011;8861;52.644;4.734;2023-04-15T14:19:14;6.03;;;3.30;;
17488;SDS011;8861;52.644;4.734;2023-04-15T14:21:41;9.33;;;3.20;;
17488;SDS011;8861;52.644;4.734;2023-04-15T14:24:08;5.07;;;2.93;;
17488;SDS011;8861;52.644;4.734;2023-04-15T14:26:35;5.47;;;2.90;;
17488;SDS011;8861;52.644;4.734;2023-04-15T14:29:02;6.00;;;2.83;;
17488;SDS011;8861;52.644;4.734;2023-04-15T14:31:29;7.60;;;3.20;;
17488;SDS011;8861;52.644;4.734;2023-04-15T14:33:58;7.47;;;2.77;;
17488;SDS011;8861;52.644;4.734;2023-04-15T14:36:25;6.53;;;2.77;;
17488;SDS011;8861;52.644;4.734;2023-04-15T14:38:52;6.03;;;2.67;;
17488;SDS011;8861;52.644;4.734;2023-04-15T15:15:16;8.17;;;2.30;;
17488;SDS011;8861;52.644;4.734;2023-04-15T15:17:43;8.33;;;2.50;;
17488;SDS011;8861;52.644;4.734;2023-04-15T15:20:10;6.43;;;2.13;;
17488;SDS011;8861;52.644;4.734;2023-04-15T15:22:37;6.67;;;2.50;;
17488;SDS011;8861;52.644;4.734;2023-04-15T15:25:04;8.13;;;2.07;;
17488;SDS011;8861;52.644;4.734;2023-04-15T15:27:31;7.47;;;2.00;;
17488;SDS011;8861;52.644;4.734;2023-04-15T15:29:58;4.87;;;1.97;;
17488;SDS011;8861;52.644;4.734;2023-04-15T15:32:27;7.07;;;2.10;;